Time;durP1;ratioP1;P1;durP2;ratioP2;P2;SDS_P1;SDS_P2;PMS_P1;PMS_P2;Temp;Humidity;BMP_temperature;BMP_pressure;BME280_temperature;BME280_humidity;BME280_pressure;Samples;Min_cycle;Max_cycle;Signal;HPM_P1;HPM_P2
2021/09/13 00:00:44;;;;;;;1999.90;999.90;;;;;;;11.62;79.16;95581.66;5030361;28;20225;-71
2021/09/13 00:03:11;;;;;;;1999.90;999.90;;;;;;;11.67;78.48;95573.72;5030249;28;20202;-70
2021/09/13 00:05:39;;;;;;;1999.90;999.90;;;;;;;11.63;78.70;95583.19;5030661;28;20201;-70
2021/09/13 00:08:06;;;;;;;1999.90;999.90;;;;;;;11.53;79.14;95583.44;5042486;28;20202;-70
2021/09/13 00:10:33;;;;;;;1999.90;999.90;;;;;;;11.48;79.82;95580.97;5030168;28;20224;-70
2021/09/13 00:13:00;;;;;;;1999.90;999.90;;;;;;;11.51;79.75;95586.34;5030270;28;20194;-71
2021/09/13 00:15:29;;;;;;;1999.90;999.90;;;;;;;11.32;80.23;95590.94;5030433;28;20201;-70
2021/09/13 00:17:56;;;;;;;1999.90;999.90;;;;;;;11.20;79.66;95590.72;5029997;28;20268;-69
2021/09/13 00:20:23;;;;;;;1999.90;999.90;;;;;;;11.12;81.12;95581.75;5030150;28;20733;-69
2021/09/13 00:22:51;;;;;;;1999.90;999.90;;;;;;;11.23;80.94;95590.88;5030319;28;20223;-70
2021/09/13 00:25:18;;;;;;;1999.90;999.90;;;;;;;11.31;80.81;95583.47;5030122;28;20210;-71
2021/09/13 00:27:45;;;;;;;1999.90;999.90;;;;;;;11.21;79.92;95585.19;5030343;28;20198;-70
2021/09/13 00:30:13;;;;;;;1999.90;999.90;;;;;;;11.02;79.81;95589.00;5030273;28;20225;-71
2021/09/13 00:32:42;;;;;;;1999.90;999.90;;;;;;;10.92;79.41;95586.63;5030337;28;20696;-71
2021/09/13 00:35:10;;;;;;;1999.90;999.90;;;;;;;10.71;80.07;95584.44;5030318;28;20331;-70
2021/09/13 00:37:37;;;;;;;1999.90;999.90;;;;;;;10.64;80.69;95589.28;5029896;28;20359;-71
2021/09/13 00:40:05;;;;;;;1999.90;999.90;;;;;;;10.69;81.37;95591.78;5030153;28;20198;-70
2021/09/13 00:42:33;;;;;;;1999.90;999.90;;;;;;;10.68;83.38;95586.88;5029844;28;20251;-71
2021/09/13 00:45:00;;;;;;;1999.90;999.90;;;;;;;10.82;83.86;95589.44;5029769;28;20244;-70
2021/09/13 00:47:28;;;;;;;1999.90;999.90;;;;;;;10.95;83.15;95584.22;5029910;28;20285;-71
2021/09/13 00:49:56;;;;;;;1999.90;999.90;;;;;;;11.09;81.87;95584.97;5030046;28;20252;-72
2021/09/13 00:52:24;;;;;;;1999.90;999.90;;;;;;;11.04;82.50;95592.88;5029807;28;20205;-69
2021/09/13 00:54:51;;;;;;;1999.90;999.90;;;;;;;11.03;82.13;95591.31;5031577;28;20679;-71
2021/09/13 00:57:19;;;;;;;1999.90;999.90;;;;;;;11.05;81.93;95588.44;5033726;28;20236;-70
2021/09/13 00:59:46;;;;;;;1999.90;999.90;;;;;;;11.08;82.33;95588.63;5034055;28;20194;-71
2021/09/13 01:02:13;;;;;;;1999.90;999.90;;;;;;;11.15;81.99;95586.41;5034005;28;20229;-72
2021/09/13 01:04:41;;;;;;;1999.90;999.90;;;;;;;11.11;81.54;95587.25;5033749;28;20240;-71
2021/09/13 01:07:09;;;;;;;1999.90;999.90;;;;;;;10.97;81.75;95584.69;5033309;28;20352;-71
2021/09/13 01:09:37;;;;;;;1999.90;999.90;;;;;;;10.94;80.74;95582.69;5033526;28;20213;-71
2021/09/13 01:12:06;;;;;;;1999.90;999.90;;;;;;;10.74;80.46;95591.69;5033614;28;20204;-71
2021/09/13 01:14:36;;;;;;;1999.90;999.90;;;;;;;10.44;80.17;95599.31;5033884;28;20202;-71
2021/09/13 01:17:04;;;;;;;1999.90;999.90;;;;;;;10.20;80.41;95597.66;5033399;28;20711;-71
2021/09/13 01:19:31;;;;;;;1999.90;999.90;;;;;;;10.15;81.23;95600.34;5033489;28;20320;-70
2021/09/13 01:22:00;;;;;;;1999.90;999.90;;;;;;;10.07;81.51;95600.19;5033645;28;20248;-70
2021/09/13 01:24:29;;;;;;;1999.90;999.90;;;;;;;9.92;82.44;95601.25;5033271;28;20201;-70
2021/09/13 01:27:00;;;;;;;1999.90;999.90;;;;;;;9.95;82.62;95603.28;5033281;28;20685;-70
2021/09/13 01:29:28;;;;;;;1999.90;999.90;;;;;;;9.99;83.11;95604.25;5033369;28;20186;-70
2021/09/13 01:31:55;;;;;;;1999.90;999.90;;;;;;;9.97;83.96;95601.16;5033104;28;20665;-69
2021/09/13 01:34:23;;;;;;;1999.90;999.90;;;;;;;10.03;84.04;95602.59;5033149;28;20190;-70
2021/09/13 01:36:50;;;;;;;1999.90;999.90;;;;;;;10.10;84.23;95610.81;5033062;28;20212;-71
2021/09/13 01:39:17;;;;;;;1999.90;999.90;;;;;;;10.10;84.44;95605.63;5033123;28;20217;-71
2021/09/13 01:41:47;;;;;;;1999.90;999.90;;;;;;;10.08;84.43;95605.13;5033259;28;20206;-70
2021/09/13 01:44:15;;;;;;;1999.90;999.90;;;;;;;10.12;84.76;95608.69;5033030;28;20332;-70
2021/09/13 01:46:44;;;;;;;1999.90;999.90;;;;;;;10.16;84.80;95607.06;5032921;28;20285;-70
2021/09/13 01:49:12;;;;;;;1999.90;999.90;;;;;;;10.14;85.20;95611.00;5032822;28;20207;-70
2021/09/13 01:51:40;;;;;;;1999.90;999.90;;;;;;;10.06;85.51;95612.41;5032687;28;20206;-70
2021/09/13 01:54:07;;;;;;;1999.90;999.90;;;;;;;10.08;84.97;95612.91;5032767;28;20214;-70
2021/09/13 01:56:35;;;;;;;1999.90;999.90;;;;;;;10.08;85.46;95612.91;5032762;28;20208;-70
2021/09/13 01:59:03;;;;;;;1999.90;999.90;;;;;;;10.09;85.73;95614.44;5032848;28;20229;-70
2021/09/13 02:01:31;;;;;;;1999.90;999.90;;;;;;;10.19;85.44;95616.91;5030418;28;20216;-70
2021/09/13 02:03:58;;;;;;;1999.90;999.90;;;;;;;10.08;85.65;95618.09;5022108;28;20202;-71
2021/09/13 02:06:25;;;;;;;1999.90;999.90;;;;;;;9.74;85.66;95615.81;5030463;28;20328;-71
2021/09/13 02:08:52;;;;;;;1999.90;999.90;;;;;;;9.75;85.58;95619.19;5032229;28;20197;-71
2021/09/13 02:11:19;;;;;;;1999.90;999.90;;;;;;;9.76;85.58;95618.88;5031474;28;20824;-71
2021/09/13 02:13:47;;;;;;;1999.90;999.90;;;;;;;9.85;86.24;95619.78;5032550;28;20190;-70
2021/09/13 02:16:15;;;;;;;1999.90;999.90;;;;;;;9.86;86.51;95623.91;5032671;28;20224;-71
2021/09/13 02:18:43;;;;;;;1999.90;999.90;;;;;;;9.95;86.57;95618.84;5032292;28;20226;-71
2021/09/13 02:21:10;;;;;;;1999.90;999.90;;;;;;;9.81;86.76;95621.41;5032408;28;20209;-71
2021/09/13 02:23:37;;;;;;;1999.90;999.90;;;;;;;9.79;87.46;95622.75;5032275;28;20197;-72
2021/09/13 02:26:04;;;;;;;1999.90;999.90;;;;;;;9.77;88.28;95619.66;5032112;28;20292;-70
2021/09/13 02:28:32;;;;;;;1999.90;999.90;;;;;;;9.76;88.98;95612.94;5032191;28;20197;-71
2021/09/13 02:30:59;;;;;;;1999.90;999.90;;;;;;;9.87;89.71;95617.66;5032397;28;20202;-72
2021/09/13 02:33:27;;;;;;;1999.90;999.90;;;;;;;9.94;88.86;95625.09;5032380;28;20198;-71
2021/09/13 02:35:55;;;;;;;1999.90;999.90;;;;;;;10.01;88.85;95622.13;5032344;28;20208;-71
2021/09/13 02:38:22;;;;;;;1999.90;999.90;;;;;;;10.15;88.50;95618.50;5031760;28;20226;-70
2021/09/13 02:40:49;;;;;;;1999.90;999.90;;;;;;;10.07;89.17;95624.34;5032088;28;20202;-70
2021/09/13 02:43:16;;;;;;;1999.90;999.90;;;;;;;10.10;88.90;95628.22;5031888;28;20202;-70
2021/09/13 02:45:43;;;;;;;1999.90;999.90;;;;;;;10.15;88.93;95628.91;5032021;28;20210;-71
2021/09/13 02:48:10;;;;;;;1999.90;999.90;;;;;;;9.98;87.33;95623.47;5032038;28;20206;-70
2021/09/13 02:50:39;;;;;;;1999.90;999.90;;;;;;;9.81;86.57;95628.44;5031719;28;20194;-71
2021/09/13 02:53:06;;;;;;;1999.90;999.90;;;;;;;9.68;85.84;95640.31;5032076;28;20201;-71
2021/09/13 02:55:34;;;;;;;1999.90;999.90;;;;;;;9.59;85.64;95638.63;5031830;28;20674;-71
2021/09/13 02:58:01;;;;;;;1999.90;999.90;;;;;;;9.38;86.09;95635.56;5031463;28;20229;-71
2021/09/13 03:00:28;;;;;;;1999.90;999.90;;;;;;;9.42;87.70;95639.91;5031951;28;20201;-70
2021/09/13 03:02:55;;;;;;;1999.90;999.90;;;;;;;9.33;87.59;95633.81;5031411;28;20193;-71
2021/09/13 03:05:22;;;;;;;1999.90;999.90;;;;;;;9.24;87.96;95632.91;5031553;28;20293;-71
2021/09/13 03:07:51;;;;;;;1999.90;999.90;;;;;;;9.03;88.13;95639.41;5031064;28;20248;-71
2021/09/13 03:10:18;;;;;;;1999.90;999.90;;;;;;;9.08;88.09;95636.75;5031340;28;20204;-70
2021/09/13 03:12:46;;;;;;;1999.90;999.90;;;;;;;9.08;88.32;95637.53;5031446;28;20198;-69
2021/09/13 03:15:13;;;;;;;1999.90;999.90;;;;;;;9.11;88.67;95636.22;5031614;28;20568;-70
2021/09/13 03:17:40;;;;;;;1999.90;999.90;;;;;;;9.01;89.18;95636.34;5030666;28;20206;-70
2021/09/13 03:20:09;;;;;;;1999.90;999.90;;;;;;;9.01;89.07;95638.94;5030985;28;20241;-70
2021/09/13 03:22:36;;;;;;;1999.90;999.90;;;;;;;9.06;88.39;95638.88;5031237;28;20190;-71
2021/09/13 03:25:06;;;;;;;1999.90;999.90;;;;;;;8.90;89.25;95640.13;5031148;28;20558;-71
2021/09/13 03:27:34;;;;;;;1999.90;999.90;;;;;;;8.84;89.43;95642.00;5031099;28;20670;-71
2021/09/13 03:30:01;;;;;;;1999.90;999.90;;;;;;;8.84;88.52;95642.00;5031369;28;20252;-70
2021/09/13 03:32:28;;;;;;;1999.90;999.90;;;;;;;8.82;88.22;95640.72;5031035;28;20232;-71
2021/09/13 03:34:55;;;;;;;1999.90;999.90;;;;;;;8.67;88.66;95641.66;5031222;28;20272;-71
2021/09/13 03:37:22;;;;;;;1999.90;999.90;;;;;;;8.66;88.90;95645.31;5030888;28;20237;-71
2021/09/13 03:39:49;;;;;;;1999.90;999.90;;;;;;;8.77;88.66;95648.53;5030755;28;20232;-71
2021/09/13 03:42:18;;;;;;;1999.90;999.90;;;;;;;8.79;89.35;95652.41;5030688;28;21056;-70
2021/09/13 03:44:45;;;;;;;1999.90;999.90;;;;;;;8.58;90.55;95649.28;5030794;28;20202;-71
2021/09/13 03:47:13;;;;;;;1999.90;999.90;;;;;;;8.67;90.70;95651.28;5030869;28;20287;-71
2021/09/13 03:49:40;;;;;;;1999.90;999.90;;;;;;;8.61;91.77;95653.16;5030207;28;20221;-71
2021/09/13 03:52:08;;;;;;;1999.90;999.90;;;;;;;8.66;91.18;95654.91;5030421;28;20193;-70
2021/09/13 03:54:36;;;;;;;1999.90;999.90;;;;;;;8.58;91.43;95651.88;5030566;28;20205;-70
2021/09/13 03:57:04;;;;;;;1999.90;999.90;;;;;;;8.63;91.59;95656.22;5030653;28;20197;-70
2021/09/13 03:59:33;;;;;;;1999.90;999.90;;;;;;;8.64;91.13;95658.53;5030338;28;20226;-71
2021/09/13 04:02:01;;;;;;;1999.90;999.90;;;;;;;8.72;91.04;95662.34;5030319;28;20198;-71
2021/09/13 04:04:29;;;;;;;1999.90;999.90;;;;;;;8.66;91.41;95666.06;5030505;28;20204;-71
2021/09/13 04:07:00;;;;;;;1999.90;999.90;;;;;;;8.66;91.44;95667.88;5030056;28;20344;-71
2021/09/13 04:09:44;;;;;;;1999.90;999.90;;;;;;;8.77;91.35;95666.69;5030529;28;20197;-70
2021/09/13 04:12:11;;;;;;;1999.90;999.90;;;;;;;8.87;90.36;95669.16;5030268;28;20594;-69
2021/09/13 04:14:40;;;;;;;1999.90;999.90;;;;;;;8.99;90.40;95675.50;5030188;28;20331;-71
2021/09/13 04:17:07;;;;;;;1999.90;999.90;;;;;;;8.99;89.59;95677.31;5030142;28;20201;-71
2021/09/13 04:19:35;;;;;;;1999.90;999.90;;;;;;;8.85;89.87;95676.44;5030411;28;20218;-71
2021/09/13 04:22:03;;;;;;;1999.90;999.90;;;;;;;8.85;89.32;95677.22;5030195;28;20280;-71
2021/09/13 04:24:30;;;;;;;1999.90;999.90;;;;;;;8.79;89.74;95675.75;5030404;28;20198;-71
2021/09/13 04:26:58;;;;;;;1999.90;999.90;;;;;;;8.85;89.45;95677.22;5030257;28;20201;-71
2021/09/13 04:29:25;;;;;;;1999.90;999.90;;;;;;;8.74;89.91;95680.19;5030202;28;20229;-71
2021/09/13 04:31:53;;;;;;;1999.90;999.90;;;;;;;8.80;90.02;95673.91;5029943;28;20241;-72
2021/09/13 04:34:21;;;;;;;1999.90;999.90;;;;;;;8.77;90.37;95679.63;5030166;28;20669;-71
2021/09/13 04:36:48;;;;;;;1999.90;999.90;;;;;;;8.75;90.58;95679.94;5029926;28;20212;-70
2021/09/13 04:39:16;;;;;;;1999.90;999.90;;;;;;;8.75;90.77;95681.75;5029898;28;20316;-70
2021/09/13 04:41:43;;;;;;;1999.90;999.90;;;;;;;8.77;90.83;95687.41;5030169;28;20289;-71
2021/09/13 04:44:10;;;;;;;1999.90;999.90;;;;;;;8.80;91.12;95681.69;5030212;28;20392;-69
2021/09/13 04:46:37;;;;;;;1999.90;999.90;;;;;;;8.73;91.76;95683.84;5030038;28;20240;-72
2021/09/13 04:49:06;;;;;;;1999.90;999.90;;;;;;;8.55;92.56;95686.09;5030071;28;20220;-72
2021/09/13 04:51:33;;;;;;;1999.90;999.90;;;;;;;8.57;92.17;95685.81;5029745;28;20240;-71
2021/09/13 04:54:00;;;;;;;1999.90;999.90;;;;;;;8.54;91.84;95694.16;5030060;28;20194;-70
2021/09/13 04:56:28;;;;;;;1999.90;999.90;;;;;;;8.48;92.53;95701.19;5030181;28;20229;-70
2021/09/13 04:58:55;;;;;;;1999.90;999.90;;;;;;;8.60;92.12;95706.00;5029579;28;20284;-70
2021/09/13 05:01:22;;;;;;;1999.90;999.90;;;;;;;8.63;92.73;95708.03;5029827;28;20200;-71
2021/09/13 05:03:49;;;;;;;1999.90;999.90;;;;;;;8.75;92.68;95699.88;5029972;28;20224;-71
2021/09/13 05:06:19;;;;;;;1999.90;999.90;;;;;;;9.00;92.05;95697.00;5029440;28;20291;-71
2021/09/13 05:08:46;;;;;;;1999.90;999.90;;;;;;;9.18;91.78;95708.44;5029633;28;20256;-71
2021/09/13 05:11:13;;;;;;;1999.90;999.90;;;;;;;9.42;91.57;95707.34;5029800;28;20284;-71
2021/09/13 05:13:40;;;;;;;1999.90;999.90;;;;;;;9.52;92.29;95715.00;5030125;28;20206;-71
2021/09/13 05:16:07;;;;;;;1999.90;999.90;;;;;;;9.59;92.79;95716.47;5029783;28;20332;-72
2021/09/13 05:18:35;;;;;;;1999.90;999.90;;;;;;;9.73;93.71;95715.47;5029633;28;20284;-71
2021/09/13 05:21:02;;;;;;;1999.90;999.90;;;;;;;10.25;93.36;95717.06;5029982;28;20571;-71
2021/09/13 05:23:31;;;;;;;1999.90;999.90;;;;;;;10.87;91.42;95712.28;5029399;28;20313;-71
2021/09/13 05:25:58;;;;;;;1999.90;999.90;;;;;;;11.48;87.73;95705.88;5029584;28;20197;-71
2021/09/13 05:28:25;;;;;;;1999.90;999.90;;;;;;;12.11;83.67;95718.78;5029495;28;20208;-71
2021/09/13 05:30:52;;;;;;;1999.90;999.90;;;;;;;12.65;81.62;95711.75;5029561;28;20199;-71
2021/09/13 05:33:19;;;;;;;1999.90;999.90;;;;;;;13.31;77.55;95714.09;5029500;28;20225;-70
2021/09/13 05:35:47;;;;;;;1999.90;999.90;;;;;;;13.69;75.64;95719.53;5029421;28;20710;-71
2021/09/13 05:38:14;;;;;;;1999.90;999.90;;;;;;;13.91;74.52;95715.22;5029387;28;20292;-71
2021/09/13 05:40:44;;;;;;;1999.90;999.90;;;;;;;13.93;73.84;95720.91;5030270;28;20232;-71
2021/09/13 05:43:11;;;;;;;1999.90;999.90;;;;;;;13.83;74.10;95716.00;5013747;28;20265;-71
2021/09/13 05:45:39;;;;;;;1999.90;999.90;;;;;;;13.76;74.44;95717.22;5013568;28;20198;-70
2021/09/13 05:48:07;;;;;;;1999.90;999.90;;;;;;;13.71;74.22;95716.59;5012999;28;20194;-70
2021/09/13 05:50:34;;;;;;;1999.90;999.90;;;;;;;13.72;74.27;95716.31;5013096;28;20666;-71
2021/09/13 05:53:02;;;;;;;1999.90;999.90;;;;;;;13.69;73.71;95719.53;5013054;28;20213;-71
2021/09/13 05:55:29;;;;;;;1999.90;999.90;;;;;;;13.81;73.69;95718.91;5013144;28;20289;-70
2021/09/13 05:57:57;;;;;;;1999.90;999.90;;;;;;;13.84;74.83;95723.53;5012818;28;20198;-72
2021/09/13 06:00:25;;;;;;;1999.90;999.90;;;;;;;13.89;75.09;95714.78;5013043;28;20230;-72
2021/09/13 06:02:52;;;;;;;1999.90;999.90;;;;;;;14.08;74.22;95717.84;5012851;28;20199;-71
2021/09/13 06:05:19;;;;;;;1999.90;999.90;;;;;;;14.19;72.87;95716.44;5012730;28;20298;-71
2021/09/13 06:07:46;;;;;;;1999.90;999.90;;;;;;;14.38;72.13;95721.34;5024832;28;20229;-71
2021/09/13 06:10:14;;;;;;;1999.90;999.90;;;;;;;14.53;72.66;95726.09;5032470;28;20198;-71
2021/09/13 06:12:41;;;;;;;1999.90;999.90;;;;;;;14.70;70.40;95726.00;5032287;28;20297;-72
2021/09/13 06:15:11;;;;;;;1999.90;999.90;;;;;;;14.86;69.17;95723.66;5032280;28;20198;-69
2021/09/13 06:17:38;;;;;;;1999.90;999.90;;;;;;;14.97;67.60;95730.06;5032246;28;20296;-71
2021/09/13 06:20:06;;;;;;;1999.90;999.90;;;;;;;15.19;65.81;95723.81;5032473;28;20257;-71
2021/09/13 06:22:34;;;;;;;1999.90;999.90;;;;;;;15.35;64.04;95719.56;5032383;28;20198;-70
2021/09/13 06:25:01;;;;;;;1999.90;999.90;;;;;;;15.55;64.21;95725.94;5032030;28;20233;-71
2021/09/13 06:27:28;;;;;;;1999.90;999.90;;;;;;;15.55;64.29;95723.31;5032051;28;20223;-70
2021/09/13 06:29:55;;;;;;;1999.90;999.90;;;;;;;15.66;63.47;95724.47;5032429;28;20194;-71
2021/09/13 06:32:24;;;;;;;1999.90;999.90;;;;;;;15.80;63.01;95730.22;5031994;28;20207;-71
2021/09/13 06:34:51;;;;;;;1999.90;999.90;;;;;;;15.90;62.74;95727.22;5031900;28;20356;-70
2021/09/13 06:37:20;;;;;;;1999.90;999.90;;;;;;;15.93;62.93;95722.13;5032118;28;20288;-70
2021/09/13 06:39:47;;;;;;;1999.90;999.90;;;;;;;15.84;63.82;95720.66;5031892;28;20697;-70
2021/09/13 06:42:15;;;;;;;1999.90;999.90;;;;;;;15.98;63.70;95720.38;5032065;28;20276;-70
2021/09/13 06:44:45;;;;;;;1999.90;999.90;;;;;;;16.31;62.99;95723.78;5031970;28;20202;-70
2021/09/13 06:47:23;;;;;;;1999.90;999.90;;;;;;;16.29;63.75;95721.47;5032088;28;20292;-71
2021/09/13 06:49:52;;;;;;;1999.90;999.90;;;;;;;16.18;63.16;95730.84;5031728;28;20186;-70
2021/09/13 06:52:19;;;;;;;1999.90;999.90;;;;;;;16.15;62.78;95725.47;5030485;28;20204;-70
2021/09/13 06:54:46;;;;;;;1999.90;999.90;;;;;;;16.25;62.69;95738.94;5031953;28;20632;-70
2021/09/13 06:57:13;;;;;;;1999.90;999.90;;;;;;;16.37;62.34;95732.97;5031931;28;20231;-69
2021/09/13 06:59:42;;;;;;;1999.90;999.90;;;;;;;16.49;62.98;95734.88;5031434;28;20268;-69
2021/09/13 07:02:10;;;;;;;1999.90;999.90;;;;;;;16.65;62.33;95735.78;5031549;28;20215;-70
2021/09/13 07:04:37;;;;;;;1999.90;999.90;;;;;;;16.69;62.73;95737.44;5031392;28;20194;-70
2021/09/13 07:07:06;;;;;;;1999.90;999.90;;;;;;;16.77;62.73;95741.06;5031075;28;21029;-70
2021/09/13 07:09:33;;;;;;;1999.90;999.90;;;;;;;16.81;61.58;95736.69;5031547;28;20193;-68
2021/09/13 07:12:00;;;;;;;1999.90;999.90;;;;;;;17.33;60.78;95733.44;5031383;28;20202;-69
2021/09/13 07:14:27;;;;;;;1999.90;999.90;;;;;;;17.66;59.40;95739.31;5031223;28;20198;-69
2021/09/13 07:16:54;;;;;;;1999.90;999.90;;;;;;;17.71;58.38;95740.97;5031195;28;20205;-71
2021/09/13 07:19:21;;;;;;;1999.90;999.90;;;;;;;17.53;58.86;95727.28;5031078;28;20285;-70
2021/09/13 07:21:49;;;;;;;1999.90;999.90;;;;;;;17.74;58.73;95740.28;5031129;28;20678;-70
2021/09/13 07:24:20;;;;;;;1999.90;999.90;;;;;;;17.82;57.21;95729.66;5030990;28;20658;-70
2021/09/13 07:26:48;;;;;;;1999.90;999.90;;;;;;;18.02;55.93;95730.56;5031380;28;20186;-72
2021/09/13 07:29:15;;;;;;;1999.90;999.90;;;;;;;18.38;56.35;95729.66;5030914;28;20201;-71
2021/09/13 07:31:43;;;;;;;1999.90;999.90;;;;;;;18.65;55.68;95725.47;5031218;28;20248;-71
2021/09/13 07:34:10;;;;;;;1999.90;999.90;;;;;;;18.71;54.04;95722.25;5030753;28;20694;-70
2021/09/13 07:36:37;;;;;;;1999.90;999.90;;;;;;;18.92;53.09;95722.78;5030823;28;20577;-69
2021/09/13 07:39:05;;;;;;;1999.90;999.90;;;;;;;19.21;51.86;95723.44;5030888;28;20208;-71
2021/09/13 07:41:34;;;;;;;1999.90;999.90;;;;;;;19.30;50.92;95724.00;5030924;28;20231;-70
2021/09/13 07:44:01;;;;;;;1999.90;999.90;;;;;;;19.13;51.64;95719.09;5030960;28;20224;-71
2021/09/13 07:46:28;;;;;;;1999.90;999.90;;;;;;;19.38;51.80;95720.41;5030968;28;20201;-72
2021/09/13 07:48:55;;;;;;;1999.90;999.90;;;;;;;19.40;50.70;95715.56;5030432;28;20293;-71
2021/09/13 07:51:23;;;;;;;1999.90;999.90;;;;;;;19.44;51.26;95724.34;5030555;28;20281;-71
2021/09/13 07:53:50;;;;;;;1999.90;999.90;;;;;;;19.71;50.39;95722.66;5030508;28;20198;-70
2021/09/13 07:56:17;;;;;;;1999.90;999.90;;;;;;;19.94;50.00;95717.47;5030789;28;20600;-70
2021/09/13 07:58:46;;;;;;;1999.90;999.90;;;;;;;19.92;50.19;95724.97;5030579;28;20241;-71
2021/09/13 08:01:13;;;;;;;1999.90;999.90;;;;;;;20.06;49.24;95728.66;5030456;28;20312;-71
2021/09/13 08:03:40;;;;;;;1999.90;999.90;;;;;;;20.04;48.98;95722.19;5030024;28;20686;-70
2021/09/13 08:06:08;;;;;;;1999.90;999.90;;;;;;;20.32;49.28;95722.75;5030229;28;20244;-71
2021/09/13 08:08:35;;;;;;;1999.90;999.90;;;;;;;20.32;48.09;95724.63;5030233;28;20206;-71
2021/09/13 08:11:03;;;;;;;1999.90;999.90;;;;;;;20.58;47.01;95709.63;5030392;28;20202;-70
2021/09/13 08:13:30;;;;;;;1999.90;999.90;;;;;;;21.01;48.21;95713.75;5030228;28;20240;-71
2021/09/13 08:15:59;;;;;;;1999.90;999.90;;;;;;;21.34;45.56;95712.34;5030255;28;20284;-72
2021/09/13 08:18:26;;;;;;;1999.90;999.90;;;;;;;21.47;44.82;95706.50;5030427;28;20197;-71
2021/09/13 08:20:53;;;;;;;1999.90;999.90;;;;;;;21.67;45.63;95711.69;5030317;28;20248;-71
2021/09/13 08:23:21;;;;;;;1999.90;999.90;;;;;;;21.71;44.15;95707.19;5030777;28;20267;-70
2021/09/13 08:25:48;;;;;;;1999.90;999.90;;;;;;;21.73;44.61;95711.00;5030350;28;20206;-71
2021/09/13 08:28:19;;;;;;;1999.90;999.90;;;;;;;21.74;44.24;95709.88;5030362;28;20204;-72
2021/09/13 08:30:47;;;;;;;1999.90;999.90;;;;;;;21.92;43.88;95702.13;5029962;28;20610;-71
2021/09/13 08:33:16;;;;;;;1999.90;999.90;;;;;;;22.05;44.16;95702.72;5029943;28;20194;-70
2021/09/13 08:35:43;;;;;;;1999.90;999.90;;;;;;;22.17;43.82;95697.16;5030041;28;20260;-70
2021/09/13 08:38:10;;;;;;;1999.90;999.90;;;;;;;22.26;43.35;95695.00;5029869;28;20206;-71
2021/09/13 08:40:37;;;;;;;1999.90;999.90;;;;;;;22.59;42.33;95702.13;5030148;28;20225;-70
2021/09/13 08:43:05;;;;;;;1999.90;999.90;;;;;;;22.65;42.29;95698.03;5029852;28;20682;-69
2021/09/13 08:45:38;;;;;;;1999.90;999.90;;;;;;;22.73;41.41;95692.44;5024076;28;20599;-71
2021/09/13 08:48:11;;;;;;;1999.90;999.90;;;;;;;22.97;42.23;95696.41;5024960;28;20213;-70
2021/09/13 08:51:03;;;;;;;1999.90;999.90;;;;;;;23.13;40.40;95694.25;5030175;28;20183;-72
2021/09/13 08:53:32;;;;;;;1999.90;999.90;;;;;;;23.41;39.54;95682.31;5029966;28;20185;-71
2021/09/13 08:56:02;;;;;;;1999.90;999.90;;;;;;;23.62;39.92;95682.44;5030018;28;20206;-71
2021/09/13 08:58:30;;;;;;;1999.90;999.90;;;;;;;23.35;40.35;95683.78;5030175;28;20210;-71
2021/09/13 09:00:58;;;;;;;1999.90;999.90;;;;;;;23.46;40.34;95680.09;5029643;28;20237;-70
2021/09/13 09:03:26;;;;;;;1999.90;999.90;;;;;;;23.37;40.61;95676.97;5030150;28;20228;-72
2021/09/13 09:05:56;;;;;;;1999.90;999.90;;;;;;;23.64;39.54;95676.75;5029703;28;20206;-71
2021/09/13 09:08:27;;;;;;;1999.90;999.90;;;;;;;23.56;39.73;95676.00;5029713;28;20201;-71
2021/09/13 09:10:55;;;;;;;1999.90;999.90;;;;;;;23.61;39.54;95675.63;5029786;28;20205;-71
2021/09/13 09:13:24;;;;;;;1999.90;999.90;;;;;;;23.66;38.72;95669.94;5029875;28;20686;-72
2021/09/13 09:15:57;;;;;;;1999.90;999.90;;;;;;;23.77;38.84;95670.00;5031529;28;20297;-72
2021/09/13 09:18:25;;;;;;;1999.90;999.90;;;;;;;23.86;39.13;95671.16;5034179;28;20286;-71
2021/09/13 09:20:54;;;;;;;1999.90;999.90;;;;;;;24.20;39.11;95660.31;5033440;28;20225;-73
2021/09/13 09:23:21;;;;;;;1999.90;999.90;;;;;;;24.48;37.97;95654.25;5033730;28;20213;-71
2021/09/13 09:25:49;;;;;;;1999.90;999.90;;;;;;;24.57;38.67;95652.00;5033303;28;20198;-71
2021/09/13 09:28:18;;;;;;;1999.90;999.90;;;;;;;24.69;37.91;95652.38;5033710;28;20285;-71
2021/09/13 09:30:49;;;;;;;1999.90;999.90;;;;;;;24.98;37.77;95649.75;5033230;28;20198;-72
2021/09/13 09:33:18;;;;;;;1999.90;999.90;;;;;;;25.14;36.62;95650.09;5033652;28;20212;-71
2021/09/13 09:35:48;;;;;;;1999.90;999.90;;;;;;;25.23;36.81;95653.13;5033116;28;20237;-71
2021/09/13 09:38:37;;;;;;;1999.90;999.90;;;;;;;25.43;35.43;95645.47;5033728;28;20592;-71
2021/09/13 09:41:08;;;;;;;1999.90;999.90;;;;;;;25.60;35.66;95636.72;5033149;28;20210;-70
2021/09/13 09:43:56;;;;;;;1999.90;999.90;;;;;;;25.84;35.50;95637.75;5033173;28;20190;-71
2021/09/13 09:46:23;;;;;;;1999.90;999.90;;;;;;;25.80;36.34;95637.00;5033279;28;20274;-71
2021/09/13 09:48:50;;;;;;;1999.90;999.90;;;;;;;25.93;34.52;95635.41;5032969;28;20200;-71
2021/09/13 09:51:31;;;;;;;1999.90;999.90;;;;;;;25.92;34.73;95633.88;5033020;28;20200;-70
2021/09/13 09:54:15;;;;;;;1999.90;999.90;;;;;;;25.91;34.51;95632.38;5032879;28;20200;-71
2021/09/13 09:56:53;;;;;;;1999.90;999.90;;;;;;;26.19;32.66;95628.81;5032514;28;20729;-71
2021/09/13 09:59:21;;;;;;;1999.90;999.90;;;;;;;26.25;32.93;95624.59;5032750;28;20248;-70
2021/09/13 10:01:53;;;;;;;1999.90;999.90;;;;;;;26.18;34.57;95621.94;5032665;28;20226;-70
2021/09/13 10:04:23;;;;;;;1999.90;999.90;;;;;;;25.92;34.50;95625.91;5032771;28;20660;-70
2021/09/13 10:06:53;;;;;;;1999.90;999.90;;;;;;;25.90;34.91;95620.22;5031133;28;20265;-70
2021/09/13 10:09:23;;;;;;;1999.90;999.90;;;;;;;26.12;35.07;95610.94;5032811;28;20281;-70
2021/09/13 10:11:53;;;;;;;1999.90;999.90;;;;;;;26.35;34.26;95607.78;5032848;28;20580;-71
2021/09/13 10:14:22;;;;;;;1999.90;999.90;;;;;;;26.65;34.11;95613.25;5032288;28;20202;-72
2021/09/13 10:16:51;;;;;;;1999.90;999.90;;;;;;;27.01;34.01;95608.38;5032416;28;20788;-72
2021/09/13 10:19:19;;;;;;;1999.90;999.90;;;;;;;27.29;32.88;95605.44;5032386;28;20233;-72
2021/09/13 10:21:46;;;;;;;1999.90;999.90;;;;;;;27.45;33.09;95606.78;5032232;28;20232;-71
2021/09/13 10:24:16;;;;;;;1999.90;999.90;;;;;;;27.42;32.05;95601.09;5032243;28;20227;-71
2021/09/13 10:26:48;;;;;;;1999.90;999.90;;;;;;;27.33;31.48;95606.16;5032377;28;20240;-71
2021/09/13 10:29:26;;;;;;;1999.90;999.90;;;;;;;27.16;31.97;95601.75;5032270;28;20251;-71
2021/09/13 10:32:01;;;;;;;1999.90;999.90;;;;;;;27.42;31.79;95587.72;5032215;28;20748;-72
2021/09/13 10:34:32;;;;;;;1999.90;999.90;;;;;;;27.54;31.35;95588.41;5032412;28;20185;-71
2021/09/13 10:37:11;;;;;;;1999.90;999.90;;;;;;;27.56;31.00;95592.16;5032347;28;20722;-71
2021/09/13 10:40:04;;;;;;;1999.90;999.90;;;;;;;27.69;31.31;95595.06;5032096;28;20197;-73
2021/09/13 10:42:38;;;;;;;1999.90;999.90;;;;;;;27.61;32.21;95590.97;5022283;28;20229;-71
2021/09/13 10:45:18;;;;;;;1999.90;999.90;;;;;;;27.78;30.98;95590.75;5032180;28;20222;-70
2021/09/13 10:47:46;;;;;;;1999.90;999.90;;;;;;;27.91;31.47;95590.94;5032224;28;20193;-71
2021/09/13 10:50:26;;;;;;;1999.90;999.90;;;;;;;28.00;29.41;95591.19;5031847;28;20749;-71
2021/09/13 10:52:54;;;;;;;1999.90;999.90;;;;;;;28.00;29.53;95585.84;5032081;28;20269;-72
2021/09/13 10:55:24;;;;;;;1999.90;999.90;;;;;;;28.16;30.05;95585.28;5031768;28;20237;-72
2021/09/13 10:57:58;;;;;;;1999.90;999.90;;;;;;;27.88;31.02;95583.00;5031984;28;20220;-72
2021/09/13 11:00:53;;;;;;;1999.90;999.90;;;;;;;28.10;29.45;95581.53;5031701;28;20195;-71
2021/09/13 11:03:37;;;;;;;1999.90;999.90;;;;;;;28.19;31.50;95574.53;5031589;28;20667;-70